sensor_id;sensor_type;location;lat;lon;timestamp;pressure;altitude;pressure_sealevel;temperature;humidity
40285;BME280;25997;50.214;19.354;2022-12-11T00:02:21;96563.00;;;1.73;56.49
40285;BME280;25997;50.214;19.354;2022-12-11T00:05:24;96562.16;;;1.74;56.35
40285;BME280;25997;50.214;19.354;2022-12-11T00:08:26;96558.81;;;1.76;56.32
40285;BME280;25997;50.214;19.354;2022-12-11T00:11:30;96546.91;;;1.81;56.18
40285;BME280;25997;50.214;19.354;2022-12-11T00:14:34;96546.75;;;1.77;56.26
40285;BME280;25997;50.214;19.354;2022-12-11T00:17:37;96541.47;;;1.74;56.25
40285;BME280;25997;50.214;19.354;2022-12-11T00:20:40;96536.38;;;1.75;56.30
40285;BME280;25997;50.214;19.354;2022-12-11T00:23:42;96534.78;;;1.80;56.31
40285;BME280;25997;50.214;19.354;2022-12-11T00:26:46;96525.28;;;1.79;56.13
40285;BME280;25997;50.214;19.354;2022-12-11T00:29:49;96523.47;;;1.77;56.23
40285;BME280;25997;50.214;19.354;2022-12-11T00:32:51;96539.00;;;1.77;56.30
40285;BME280;25997;50.214;19.354;2022-12-11T00:35:54;96523.47;;;1.77;56.34
40285;BME280;25997;50.214;19.354;2022-12-11T00:38:56;96520.88;;;1.77;56.21
40285;BME280;25997;50.214;19.354;2022-12-11T00:42:00;96519.22;;;1.79;56.23
40285;BME280;25997;50.214;19.354;2022-12-11T00:45:03;96515.84;;;1.80;56.29
40285;BME280;25997;50.214;19.354;2022-12-11T00:48:06;96517.28;;;1.73;56.29
40285;BME280;25997;50.214;19.354;2022-12-11T00:51:09;96511.16;;;1.70;56.37
40285;BME280;25997;50.214;19.354;2022-12-11T00:54:12;96514.47;;;1.66;56.34
40285;BME280;25997;50.214;19.354;2022-12-11T00:57:15;96515.84;;;1.56;56.48
40285;BME280;25997;50.214;19.354;2022-12-11T01:00:18;96524.53;;;1.58;56.58
40285;BME280;25997;50.214;19.354;2022-12-11T01:03:22;96522.66;;;1.54;56.66
40285;BME280;25997;50.214;19.354;2022-12-11T01:06:25;96517.53;;;1.56;56.60
40285;BME280;25997;50.214;19.354;2022-12-11T01:09:28;96513.06;;;1.52;56.52
40285;BME280;25997;50.214;19.354;2022-12-11T01:12:51;96516.44;;;1.49;56.55
40285;BME280;25997;50.214;19.354;2022-12-11T01:15:53;96511.34;;;1.51;56.54
40285;BME280;25997;50.214;19.354;2022-12-11T01:18:56;96528.53;;;1.50;56.45
40285;BME280;25997;50.214;19.354;2022-12-11T01:21:58;96525.06;;;1.50;56.53
40285;BME280;25997;50.214;19.354;2022-12-11T01:25:01;96527.63;;;1.48;56.53
40285;BME280;25997;50.214;19.354;2022-12-11T01:28:06;96518.81;;;1.43;56.63
40285;BME280;25997;50.214;19.354;2022-12-11T01:31:10;96513.69;;;1.45;56.44
40285;BME280;25997;50.214;19.354;2022-12-11T01:34:13;96509.22;;;1.41;56.55
40285;BME280;25997;50.214;19.354;2022-12-11T01:37:16;96506.59;;;1.39;56.71
40285;BME280;25997;50.214;19.354;2022-12-11T01:40:19;96490.38;;;1.43;56.36
40285;BME280;25997;50.214;19.354;2022-12-11T01:43:23;96488.34;;;1.35;56.68
40285;BME280;25997;50.214;19.354;2022-12-11T01:46:26;96486.69;;;1.37;56.73
40285;BME280;25997;50.214;19.354;2022-12-11T01:49:29;96494.44;;;1.37;56.68
40285;BME280;25997;50.214;19.354;2022-12-11T01:52:32;96492.03;;;1.41;56.61
40285;BME280;25997;50.214;19.354;2022-12-11T01:55:36;96492.94;;;1.43;56.27
40285;BME280;25997;50.214;19.354;2022-12-11T01:58:45;96491.84;;;1.37;56.70
40285;BME280;25997;50.214;19.354;2022-12-11T02:01:52;96486.09;;;1.44;56.43
40285;BME280;25997;50.214;19.354;2022-12-11T02:04:56;96483.59;;;1.47;56.41
40285;BME280;25997;50.214;19.354;2022-12-11T02:08:00;96487.78;;;1.43;56.49
40285;BME280;25997;50.214;19.354;2022-12-11T02:11:06;96484.22;;;1.40;56.29
40285;BME280;25997;50.214;19.354;2022-12-11T02:14:21;96487.56;;;1.37;56.53
40285;BME280;25997;50.214;19.354;2022-12-11T02:17:32;96494.72;;;1.44;56.36
40285;BME280;25997;50.214;19.354;2022-12-11T02:20:40;96491.03;;;1.38;56.51
40285;BME280;25997;50.214;19.354;2022-12-11T02:24:06;96492.75;;;1.37;56.59
40285;BME280;25997;50.214;19.354;2022-12-11T02:27:24;96489.31;;;1.38;56.48
40285;BME280;25997;50.214;19.354;2022-12-11T02:30:30;96492.13;;;1.44;56.40
40285;BME280;25997;50.214;19.354;2022-12-11T02:33:39;96493.78;;;1.42;56.40
40285;BME280;25997;50.214;19.354;2022-12-11T02:36:44;96489.75;;;1.50;56.18
40285;BME280;25997;50.214;19.354;2022-12-11T02:39:50;96492.91;;;1.42;56.53
40285;BME280;25997;50.214;19.354;2022-12-11T02:42:56;96484.97;;;1.37;56.54
40285;BME280;25997;50.214;19.354;2022-12-11T02:46:05;96487.78;;;1.43;56.30
40285;BME280;25997;50.214;19.354;2022-12-11T02:49:10;96474.13;;;1.47;56.42
40285;BME280;25997;50.214;19.354;2022-12-11T02:52:18;96471.50;;;1.46;56.12
40285;BME280;25997;50.214;19.354;2022-12-11T02:55:22;96468.78;;;1.43;56.20
40285;BME280;25997;50.214;19.354;2022-12-11T02:58:28;96467.97;;;1.44;56.42
40285;BME280;25997;50.214;19.354;2022-12-11T03:01:33;96467.25;;;1.48;56.33
40285;BME280;25997;50.214;19.354;2022-12-11T03:04:36;96463.78;;;1.47;56.15
40285;BME280;25997;50.214;19.354;2022-12-11T03:07:41;96467.22;;;1.46;56.24
40285;BME280;25997;50.214;19.354;2022-12-11T03:10:44;96462.66;;;1.39;56.29
40285;BME280;25997;50.214;19.354;2022-12-11T03:13:47;96464.31;;;1.37;56.44
40285;BME280;25997;50.214;19.354;2022-12-11T03:16:54;96461.44;;;1.30;56.45
40285;BME280;25997;50.214;19.354;2022-12-11T03:20:06;96455.22;;;1.24;56.56
40285;BME280;25997;50.214;19.354;2022-12-11T03:23:18;96471.50;;;1.22;56.46
40285;BME280;25997;50.214;19.354;2022-12-11T03:26:22;96467.31;;;1.25;56.73
40285;BME280;25997;50.214;19.354;2022-12-11T03:29:30;96471.06;;;1.34;56.34
40285;BME280;25997;50.214;19.354;2022-12-11T03:32:41;96459.91;;;1.35;56.25
40285;BME280;25997;50.214;19.354;2022-12-11T03:35:50;96462.44;;;1.33;56.40
40285;BME280;25997;50.214;19.354;2022-12-11T03:38:55;96451.22;;;1.33;56.13
40285;BME280;25997;50.214;19.354;2022-12-11T03:42:00;96451.97;;;1.30;56.38
40285;BME280;25997;50.214;19.354;2022-12-11T03:45:05;96445.72;;;1.23;56.32
40285;BME280;25997;50.214;19.354;2022-12-11T03:48:10;96443.19;;;1.25;56.69
40285;BME280;25997;50.214;19.354;2022-12-11T03:51:15;96438.91;;;1.25;56.47
40285;BME280;25997;50.214;19.354;2022-12-11T03:54:19;96434.50;;;1.23;56.58
40285;BME280;25997;50.214;19.354;2022-12-11T03:57:25;96425.94;;;1.24;56.54
40285;BME280;25997;50.214;19.354;2022-12-11T04:00:30;96428.44;;;1.22;56.53
40285;BME280;25997;50.214;19.354;2022-12-11T04:03:34;96429.16;;;1.18;56.59
40285;BME280;25997;50.214;19.354;2022-12-11T04:06:36;96435.06;;;1.14;56.70
40285;BME280;25997;50.214;19.354;2022-12-11T04:09:39;96429.19;;;1.20;56.61
40285;BME280;25997;50.214;19.354;2022-12-11T04:12:41;96438.34;;;1.10;56.69
40285;BME280;25997;50.214;19.354;2022-12-11T04:15:44;96435.66;;;1.07;56.88
40285;BME280;25997;50.214;19.354;2022-12-11T04:18:48;96418.63;;;1.12;56.71
40285;BME280;25997;50.214;19.354;2022-12-11T04:22:09;96433.19;;;1.10;56.51
40285;BME280;25997;50.214;19.354;2022-12-11T04:25:28;96424.59;;;1.11;56.51
40285;BME280;25997;50.214;19.354;2022-12-11T04:28:31;96421.38;;;1.17;56.72
40285;BME280;25997;50.214;19.354;2022-12-11T04:31:33;96426.69;;;1.21;56.43
40285;BME280;25997;50.214;19.354;2022-12-11T04:34:37;96425.69;;;1.18;56.35
40285;BME280;25997;50.214;19.354;2022-12-11T04:37:41;96428.91;;;1.11;56.52
40285;BME280;25997;50.214;19.354;2022-12-11T04:40:43;96425.84;;;1.22;56.32
40285;BME280;25997;50.214;19.354;2022-12-11T04:43:46;96421.44;;;1.20;56.45
40285;BME280;25997;50.214;19.354;2022-12-11T04:46:48;96415.09;;;1.10;56.37
40285;BME280;25997;50.214;19.354;2022-12-11T04:49:52;96414.41;;;1.16;56.53
40285;BME280;25997;50.214;19.354;2022-12-11T04:52:55;96418.56;;;1.11;56.45
40285;BME280;25997;50.214;19.354;2022-12-11T04:55:57;96413.50;;;1.14;56.48
40285;BME280;25997;50.214;19.354;2022-12-11T04:59:00;96409.72;;;1.04;56.34
40285;BME280;25997;50.214;19.354;2022-12-11T05:02:03;96417.94;;;0.94;56.52
40285;BME280;25997;50.214;19.354;2022-12-11T05:05:08;96419.31;;;0.85;56.73
40285;BME280;25997;50.214;19.354;2022-12-11T05:08:11;96412.09;;;0.76;57.19
40285;BME280;25997;50.214;19.354;2022-12-11T05:11:14;96410.09;;;0.69;56.98
40285;BME280;25997;50.214;19.354;2022-12-11T05:14:17;96412.69;;;0.69;57.12
40285;BME280;25997;50.214;19.354;2022-12-11T05:17:20;96416.22;;;0.71;56.97
40285;BME280;25997;50.214;19.354;2022-12-11T05:20:24;96410.88;;;0.67;56.86
40285;BME280;25997;50.214;19.354;2022-12-11T05:23:26;96404.31;;;0.75;56.93
40285;BME280;25997;50.214;19.354;2022-12-11T05:26:29;96410.41;;;0.77;56.66
40285;BME280;25997;50.214;19.354;2022-12-11T05:29:32;96403.53;;;0.77;56.47
40285;BME280;25997;50.214;19.354;2022-12-11T05:32:34;96402.72;;;0.78;56.70
40285;BME280;25997;50.214;19.354;2022-12-11T05:35:38;96399.16;;;0.75;56.86
40285;BME280;25997;50.214;19.354;2022-12-11T05:38:40;96406.03;;;0.76;56.63
40285;BME280;25997;50.214;19.354;2022-12-11T05:41:43;96412.31;;;0.82;56.58
40285;BME280;25997;50.214;19.354;2022-12-11T05:44:45;96401.31;;;0.86;56.37
40285;BME280;25997;50.214;19.354;2022-12-11T05:47:50;96403.16;;;0.90;56.39
40285;BME280;25997;50.214;19.354;2022-12-11T05:50:59;96409.25;;;0.92;56.45
40285;BME280;25997;50.214;19.354;2022-12-11T05:54:02;96393.97;;;0.98;56.34
40285;BME280;25997;50.214;19.354;2022-12-11T05:57:05;96403.66;;;1.04;56.36
40285;BME280;25997;50.214;19.354;2022-12-11T06:00:10;96395.91;;;1.04;56.35
40285;BME280;25997;50.214;19.354;2022-12-11T06:03:13;96392.63;;;0.84;56.27
40285;BME280;25997;50.214;19.354;2022-12-11T06:06:17;96395.16;;;0.61;56.79
40285;BME280;25997;50.214;19.354;2022-12-11T06:09:19;96389.34;;;0.66;56.90
40285;BME280;25997;50.214;19.354;2022-12-11T06:12:22;96393.63;;;0.66;56.56
40285;BME280;25997;50.214;19.354;2022-12-11T06:15:24;96394.03;;;0.76;56.40
40285;BME280;25997;50.214;19.354;2022-12-11T06:18:26;96399.31;;;0.79;56.53
40285;BME280;25997;50.214;19.354;2022-12-11T06:21:31;96399.47;;;0.84;56.54
40285;BME280;25997;50.214;19.354;2022-12-11T06:24:34;96397.72;;;0.83;56.34
40285;BME280;25997;50.214;19.354;2022-12-11T06:27:37;96402.66;;;0.77;56.39
40285;BME280;25997;50.214;19.354;2022-12-11T06:30:39;96408.75;;;0.79;56.38
40285;BME280;25997;50.214;19.354;2022-12-11T06:33:42;96411.28;;;0.77;56.29
40285;BME280;25997;50.214;19.354;2022-12-11T06:36:45;96412.22;;;0.79;56.43
40285;BME280;25997;50.214;19.354;2022-12-11T06:39:48;96408.75;;;0.79;56.46
40285;BME280;25997;50.214;19.354;2022-12-11T06:42:50;96411.63;;;0.86;56.33
40285;BME280;25997;50.214;19.354;2022-12-11T06:45:53;96414.97;;;0.84;56.18
40285;BME280;25997;50.214;19.354;2022-12-11T06:48:55;96415.63;;;0.78;56.36
40285;BME280;25997;50.214;19.354;2022-12-11T06:51:59;96417.97;;;0.72;56.41
40285;BME280;25997;50.214;19.354;2022-12-11T06:55:02;96429.66;;;0.63;56.41
40285;BME280;25997;50.214;19.354;2022-12-11T06:58:04;96431.84;;;0.52;56.51
40285;BME280;25997;50.214;19.354;2022-12-11T07:01:14;96424.59;;;0.43;56.62
40285;BME280;25997;50.214;19.354;2022-12-11T07:04:16;96421.88;;;0.40;56.82
40285;BME280;25997;50.214;19.354;2022-12-11T07:07:20;96424.75;;;0.46;56.41
40285;BME280;25997;50.214;19.354;2022-12-11T07:10:23;96418.50;;;0.41;56.76
40285;BME280;25997;50.214;19.354;2022-12-11T07:13:26;96409.91;;;0.42;56.69
40285;BME280;25997;50.214;19.354;2022-12-11T07:16:28;96419.13;;;0.36;56.71
40285;BME280;25997;50.214;19.354;2022-12-11T07:19:30;96415.56;;;0.32;56.63
40285;BME280;25997;50.214;19.354;2022-12-11T07:22:34;96422.47;;;0.33;56.89
40285;BME280;25997;50.214;19.354;2022-12-11T07:25:37;96432.28;;;0.42;56.58
40285;BME280;25997;50.214;19.354;2022-12-11T07:28:40;96435.38;;;0.33;56.40
40285;BME280;25997;50.214;19.354;2022-12-11T07:31:42;96444.88;;;0.34;56.46
40285;BME280;25997;50.214;19.354;2022-12-11T07:34:45;96434.88;;;0.42;56.76
40285;BME280;25997;50.214;19.354;2022-12-11T07:37:49;96443.06;;;0.53;56.32
40285;BME280;25997;50.214;19.354;2022-12-11T07:40:51;96440.53;;;0.54;56.46
40285;BME280;25997;50.214;19.354;2022-12-11T07:43:54;96435.31;;;0.53;56.58
40285;BME280;25997;50.214;19.354;2022-12-11T07:46:56;96444.53;;;0.46;56.63
40285;BME280;25997;50.214;19.354;2022-12-11T07:49:59;96444.19;;;0.38;56.77
40285;BME280;25997;50.214;19.354;2022-12-11T07:53:03;96439.84;;;0.37;56.55
40285;BME280;25997;50.214;19.354;2022-12-11T07:56:06;96435.63;;;0.39;56.84
40285;BME280;25997;50.214;19.354;2022-12-11T07:59:09;96438.66;;;0.50;56.27
40285;BME280;25997;50.214;19.354;2022-12-11T08:02:12;96431.09;;;0.34;56.63
40285;BME280;25997;50.214;19.354;2022-12-11T08:05:14;96424.47;;;0.40;56.41
40285;BME280;25997;50.214;19.354;2022-12-11T08:08:19;96437.44;;;0.42;56.62
40285;BME280;25997;50.214;19.354;2022-12-11T08:11:21;96438.22;;;0.39;56.80
40285;BME280;25997;50.214;19.354;2022-12-11T08:14:24;96435.88;;;0.25;56.75
40285;BME280;25997;50.214;19.354;2022-12-11T08:17:26;96441.53;;;0.15;57.03
40285;BME280;25997;50.214;19.354;2022-12-11T08:20:29;96440.44;;;0.30;56.81
40285;BME280;25997;50.214;19.354;2022-12-11T08:23:33;96430.09;;;0.30;56.70
40285;BME280;25997;50.214;19.354;2022-12-11T08:26:36;96430.81;;;0.26;56.71
40285;BME280;25997;50.214;19.354;2022-12-11T08:29:38;96438.78;;;0.32;56.62
40285;BME280;25997;50.214;19.354;2022-12-11T08:32:41;96439.00;;;0.38;56.61
40285;BME280;25997;50.214;19.354;2022-12-11T08:35:43;96443.06;;;0.53;56.64
40285;BME280;25997;50.214;19.354;2022-12-11T08:38:48;96439.91;;;0.39;56.39
40285;BME280;25997;50.214;19.354;2022-12-11T08:41:50;96432.13;;;0.37;56.64
40285;BME280;25997;50.214;19.354;2022-12-11T08:44:52;96434.06;;;0.22;56.50
40285;BME280;25997;50.214;19.354;2022-12-11T08:47:55;96433.13;;;0.20;56.72
40285;BME280;25997;50.214;19.354;2022-12-11T08:50:59;96433.56;;;0.31;56.61
40285;BME280;25997;50.214;19.354;2022-12-11T08:54:04;96446.34;;;0.28;56.69
40285;BME280;25997;50.214;19.354;2022-12-11T08:57:06;96441.53;;;0.37;56.54
40285;BME280;25997;50.214;19.354;2022-12-11T09:00:11;96435.63;;;0.39;56.35
40285;BME280;25997;50.214;19.354;2022-12-11T09:03:15;96437.59;;;0.45;56.21
40285;BME280;25997;50.214;19.354;2022-12-11T09:06:18;96443.41;;;0.41;56.19
40285;BME280;25997;50.214;19.354;2022-12-11T09:09:23;96442.59;;;0.20;56.42
40285;BME280;25997;50.214;19.354;2022-12-11T09:12:26;96424.75;;;0.26;56.55
40285;BME280;25997;50.214;19.354;2022-12-11T09:15:28;96429.94;;;0.26;56.00
40285;BME280;25997;50.214;19.354;2022-12-11T09:18:31;96426.94;;;-0.05;56.34
40285;BME280;25997;50.214;19.354;2022-12-11T09:21:33;96430.00;;;0.07;55.99
40285;BME280;25997;50.214;19.354;2022-12-11T09:24:38;96418.03;;;-0.13;55.76
40285;BME280;25997;50.214;19.354;2022-12-11T09:27:40;96428.63;;;-0.06;55.89
40285;BME280;25997;50.214;19.354;2022-12-11T09:30:43;96427.38;;;-0.15;56.08
40285;BME280;25997;50.214;19.354;2022-12-11T09:33:45;96421.47;;;-0.13;56.11
40285;BME280;25997;50.214;19.354;2022-12-11T09:36:48;96410.78;;;-0.01;56.13
40285;BME280;25997;50.214;19.354;2022-12-11T09:39:52;96407.38;;;-0.00;55.74
40285;BME280;25997;50.214;19.354;2022-12-11T09:42:59;96415.41;;;0.07;55.73
40285;BME280;25997;50.214;19.354;2022-12-11T09:46:08;96417.38;;;0.35;55.71
40285;BME280;25997;50.214;19.354;2022-12-11T09:49:20;96422.78;;;0.41;55.32
40285;BME280;25997;50.214;19.354;2022-12-11T09:52:31;96425.56;;;0.25;55.16
40285;BME280;25997;50.214;19.354;2022-12-11T09:55:40;96419.25;;;0.39;55.42
40285;BME280;25997;50.214;19.354;2022-12-11T09:58:56;96428.19;;;0.47;55.07
40285;BME280;25997;50.214;19.354;2022-12-11T10:02:18;96415.72;;;0.58;54.76
40285;BME280;25997;50.214;19.354;2022-12-11T10:05:28;96419.97;;;0.79;55.05
40285;BME280;25997;50.214;19.354;2022-12-11T10:08:38;96421.13;;;0.87;54.50
40285;BME280;25997;50.214;19.354;2022-12-11T10:11:57;96419.66;;;0.48;54.20
40285;BME280;25997;50.214;19.354;2022-12-11T10:15:15;96421.34;;;0.47;54.46
40285;BME280;25997;50.214;19.354;2022-12-11T10:18:22;96422.66;;;0.60;54.74
40285;BME280;25997;50.214;19.354;2022-12-11T10:21:28;96414.47;;;0.48;54.44
40285;BME280;25997;50.214;19.354;2022-12-11T10:24:38;96421.56;;;0.53;54.99
40285;BME280;25997;50.214;19.354;2022-12-11T10:27:43;96427.66;;;0.56;54.92
40285;BME280;25997;50.214;19.354;2022-12-11T10:30:48;96418.47;;;0.62;54.99
40285;BME280;25997;50.214;19.354;2022-12-11T10:33:58;96421.31;;;0.70;54.97
40285;BME280;25997;50.214;19.354;2022-12-11T10:37:02;96421.78;;;0.82;54.92
40285;BME280;25997;50.214;19.354;2022-12-11T10:40:06;96416.16;;;0.70;54.65
40285;BME280;25997;50.214;19.354;2022-12-11T10:43:10;96412.94;;;0.75;54.34
40285;BME280;25997;50.214;19.354;2022-12-11T10:46:18;96414.69;;;0.54;54.26
40285;BME280;25997;50.214;19.354;2022-12-11T10:49:23;96418.19;;;0.55;54.74
40285;BME280;25997;50.214;19.354;2022-12-11T10:52:30;96408.72;;;0.33;54.58
40285;BME280;25997;50.214;19.354;2022-12-11T10:55:38;96409.75;;;0.38;54.25
40285;BME280;25997;50.214;19.354;2022-12-11T10:58:48;96398.31;;;0.31;54.37
40285;BME280;25997;50.214;19.354;2022-12-11T11:01:51;96396.75;;;0.35;54.58
40285;BME280;25997;50.214;19.354;2022-12-11T11:04:57;96393.31;;;0.36;54.21
40285;BME280;25997;50.214;19.354;2022-12-11T11:08:12;96398.66;;;0.40;53.91
40285;BME280;25997;50.214;19.354;2022-12-11T11:11:26;96396.16;;;0.42;54.25
40285;BME280;25997;50.214;19.354;2022-12-11T11:14:31;96401.09;;;0.58;54.15
40285;BME280;25997;50.214;19.354;2022-12-11T11:17:41;96379.09;;;0.45;53.93
40285;BME280;25997;50.214;19.354;2022-12-11T11:20:46;96369.00;;;0.51;54.20
40285;BME280;25997;50.214;19.354;2022-12-11T11:23:50;96370.56;;;0.46;54.11
40285;BME280;25997;50.214;19.354;2022-12-11T11:26:53;96375.97;;;0.54;54.44
40285;BME280;25997;50.214;19.354;2022-12-11T11:30:00;96363.91;;;0.77;54.00
40285;BME280;25997;50.214;19.354;2022-12-11T11:33:12;96365.44;;;0.72;53.84
40285;BME280;25997;50.214;19.354;2022-12-11T11:36:19;96367.41;;;0.77;53.58
40285;BME280;25997;50.214;19.354;2022-12-11T11:39:26;96367.09;;;0.70;52.98
40285;BME280;25997;50.214;19.354;2022-12-11T11:42:37;96373.13;;;0.46;52.88
40285;BME280;25997;50.214;19.354;2022-12-11T11:45:50;96374.28;;;0.55;53.88
40285;BME280;25997;50.214;19.354;2022-12-11T11:48:59;96374.88;;;0.71;53.47
40285;BME280;25997;50.214;19.354;2022-12-11T11:52:11;96381.25;;;0.79;53.69
40285;BME280;25997;50.214;19.354;2022-12-11T11:55:19;96381.66;;;0.91;53.94
40285;BME280;25997;50.214;19.354;2022-12-11T11:58:34;96380.00;;;0.93;53.46
40285;BME280;25997;50.214;19.354;2022-12-11T12:01:42;96381.66;;;0.68;53.63
40285;BME280;25997;50.214;19.354;2022-12-11T12:04:45;96373.38;;;0.76;53.55
40285;BME280;25997;50.214;19.354;2022-12-11T12:07:58;96376.97;;;0.80;53.45
40285;BME280;25997;50.214;19.354;2022-12-11T12:11:15;96378.47;;;0.75;53.48
40285;BME280;25997;50.214;19.354;2022-12-11T12:14:24;96382.41;;;0.65;53.93
40285;BME280;25997;50.214;19.354;2022-12-11T12:17:38;96378.91;;;0.63;53.89
40285;BME280;25997;50.214;19.354;2022-12-11T12:20:51;96371.38;;;0.69;53.83
40285;BME280;25997;50.214;19.354;2022-12-11T12:24:04;96369.84;;;0.50;53.88
40285;BME280;25997;50.214;19.354;2022-12-11T12:27:17;96373.13;;;0.24;53.88
40285;BME280;25997;50.214;19.354;2022-12-11T12:30:20;96375.75;;;0.26;54.04
40285;BME280;25997;50.214;19.354;2022-12-11T12:33:33;96378.84;;;0.39;53.70
40285;BME280;25997;50.214;19.354;2022-12-11T12:36:43;96375.03;;;0.30;53.92
40285;BME280;25997;50.214;19.354;2022-12-11T12:39:58;96373.78;;;0.20;53.88
40285;BME280;25997;50.214;19.354;2022-12-11T12:43:23;96378.72;;;0.36;53.63
40285;BME280;25997;50.214;19.354;2022-12-11T12:46:40;96377.41;;;0.46;53.70
40285;BME280;25997;50.214;19.354;2022-12-11T12:49:48;96377.66;;;0.31;53.63
40285;BME280;25997;50.214;19.354;2022-12-11T12:52:53;96387.13;;;0.31;53.64
40285;BME280;25997;50.214;19.354;2022-12-11T12:55:56;96379.84;;;0.21;53.93
40285;BME280;25997;50.214;19.354;2022-12-11T12:58:59;96396.19;;;-0.01;53.00
40285;BME280;25997;50.214;19.354;2022-12-11T13:02:02;96394.91;;;0.10;54.18
40285;BME280;25997;50.214;19.354;2022-12-11T13:05:19;96396.03;;;0.17;53.78
40285;BME280;25997;50.214;19.354;2022-12-11T13:08:24;96391.56;;;0.13;53.84
40285;BME280;25997;50.214;19.354;2022-12-11T13:11:32;96406.72;;;0.05;53.72
40285;BME280;25997;50.214;19.354;2022-12-11T13:14:36;96407.50;;;0.03;54.04
40285;BME280;25997;50.214;19.354;2022-12-11T13:17:38;96406.97;;;0.11;53.85
40285;BME280;25997;50.214;19.354;2022-12-11T13:20:47;96403.44;;;0.09;53.93
40285;BME280;25997;50.214;19.354;2022-12-11T13:23:52;96398.25;;;0.08;53.94
40285;BME280;25997;50.214;19.354;2022-12-11T13:26:55;96409.19;;;0.02;53.69
40285;BME280;25997;50.214;19.354;2022-12-11T13:30:04;96407.19;;;-0.05;53.77
40285;BME280;25997;50.214;19.354;2022-12-11T13:33:14;96420.44;;;-0.18;53.77
40285;BME280;25997;50.214;19.354;2022-12-11T13:36:29;96418.50;;;-0.22;53.75
40285;BME280;25997;50.214;19.354;2022-12-11T13:39:34;96419.63;;;-0.15;53.76
40285;BME280;25997;50.214;19.354;2022-12-11T13:42:47;96418.28;;;-0.07;53.88
40285;BME280;25997;50.214;19.354;2022-12-11T13:45:53;96422.16;;;0.04;54.02
40285;BME280;25997;50.214;19.354;2022-12-11T13:48:59;96411.50;;;0.17;53.98
40285;BME280;25997;50.214;19.354;2022-12-11T13:52:05;96423.47;;;0.15;53.74
40285;BME280;25997;50.214;19.354;2022-12-11T13:55:18;96425.63;;;0.04;53.47
40285;BME280;25997;50.214;19.354;2022-12-11T13:58:23;96434.03;;;0.00;53.69
40285;BME280;25997;50.214;19.354;2022-12-11T14:01:27;96431.41;;;-0.01;54.11
40285;BME280;25997;50.214;19.354;2022-12-11T14:04:33;96430.22;;;-0.09;54.04
40285;BME280;25997;50.214;19.354;2022-12-11T14:07:40;96438.78;;;-0.10;54.07
40285;BME280;25997;50.214;19.354;2022-12-11T14:10:43;96438.00;;;-0.08;54.11
40285;BME280;25997;50.214;19.354;2022-12-11T14:13:46;96444.94;;;-0.07;54.03
40285;BME280;25997;50.214;19.354;2022-12-11T14:16:49;96448.28;;;-0.09;54.02
40285;BME280;25997;50.214;19.354;2022-12-11T14:19:54;96445.56;;;-0.12;54.41
40285;BME280;25997;50.214;19.354;2022-12-11T14:23:05;96439.59;;;-0.11;54.22
40285;BME280;25997;50.214;19.354;2022-12-11T14:26:17;96440.28;;;0.05;54.34
40285;BME280;25997;50.214;19.354;2022-12-11T14:29:28;96437.16;;;0.14;54.25
40285;BME280;25997;50.214;19.354;2022-12-11T14:32:35;96442.91;;;0.07;54.31
40285;BME280;25997;50.214;19.354;2022-12-11T14:35:40;96439.66;;;-0.10;54.33
40285;BME280;25997;50.214;19.354;2022-12-11T14:38:48;96439.53;;;-0.34;54.43
40285;BME280;25997;50.214;19.354;2022-12-11T14:41:57;96437.91;;;-0.32;54.75
40285;BME280;25997;50.214;19.354;2022-12-11T14:45:06;96439.97;;;-0.44;54.58
40285;BME280;25997;50.214;19.354;2022-12-11T14:48:12;96440.69;;;-0.46;54.85
40285;BME280;25997;50.214;19.354;2022-12-11T14:51:18;96436.56;;;-0.43;54.60
40285;BME280;25997;50.214;19.354;2022-12-11T14:54:27;96436.69;;;-0.40;54.17
40285;BME280;25997;50.214;19.354;2022-12-11T14:57:33;96441.59;;;-0.46;54.35
40285;BME280;25997;50.214;19.354;2022-12-11T15:00:36;96444.03;;;-0.49;54.34
40285;BME280;25997;50.214;19.354;2022-12-11T15:03:40;96442.28;;;-0.50;54.24
40285;BME280;25997;50.214;19.354;2022-12-11T15:06:44;96447.19;;;-0.56;54.07
40285;BME280;25997;50.214;19.354;2022-12-11T15:09:50;96448.03;;;-0.55;53.98
40285;BME280;25997;50.214;19.354;2022-12-11T15:12:53;96446.22;;;-0.58;54.05
40285;BME280;25997;50.214;19.354;2022-12-11T15:15:56;96444.53;;;-0.57;54.31
40285;BME280;25997;50.214;19.354;2022-12-11T15:18:59;96448.69;;;-0.61;54.32
40285;BME280;25997;50.214;19.354;2022-12-11T15:22:04;96448.44;;;-0.67;54.00
40285;BME280;25997;50.214;19.354;2022-12-11T15:25:18;96459.47;;;-0.69;54.15
40285;BME280;25997;50.214;19.354;2022-12-11T15:28:26;96466.47;;;-0.67;54.36
40285;BME280;25997;50.214;19.354;2022-12-11T15:31:31;96457.56;;;-0.73;54.33
40285;BME280;25997;50.214;19.354;2022-12-11T15:34:41;96460.34;;;-0.69;54.55
40285;BME280;25997;50.214;19.354;2022-12-11T15:37:51;96464.00;;;-0.64;54.37
40285;BME280;25997;50.214;19.354;2022-12-11T15:40:55;96470.38;;;-0.56;54.26
40285;BME280;25997;50.214;19.354;2022-12-11T15:44:00;96472.88;;;-0.57;54.60
40285;BME280;25997;50.214;19.354;2022-12-11T15:47:11;96472.91;;;-0.37;54.67
40285;BME280;25997;50.214;19.354;2022-12-11T15:50:14;96470.97;;;-0.22;53.57
40285;BME280;25997;50.214;19.354;2022-12-11T15:53:17;96464.81;;;-0.25;54.27
40285;BME280;25997;50.214;19.354;2022-12-11T15:56:22;96474.69;;;-0.15;54.07
40285;BME280;25997;50.214;19.354;2022-12-11T15:59:24;96489.41;;;-0.12;53.93
40285;BME280;25997;50.214;19.354;2022-12-11T16:02:27;96482.13;;;-0.81;54.12
40285;BME280;25997;50.214;19.354;2022-12-11T16:05:30;96481.13;;;-0.85;54.79
40285;BME280;25997;50.214;19.354;2022-12-11T16:08:32;96482.53;;;-0.72;54.89
40285;BME280;25997;50.214;19.354;2022-12-11T16:11:36;96483.72;;;-0.64;54.79
40285;BME280;25997;50.214;19.354;2022-12-11T16:14:39;96482.56;;;-0.52;54.50
40285;BME280;25997;50.214;19.354;2022-12-11T16:17:41;96478.63;;;-0.44;54.47
40285;BME280;25997;50.214;19.354;2022-12-11T16:20:45;96479.38;;;-0.46;54.34